sensor_id;sensor_type;location;lat;lon;timestamp;P1;durP1;ratioP1;P2;durP2;ratioP2
19163;SDS011;9714;51.208;4.242;2023-03-04T00:01:16;18.97;;;3.73;;
19163;SDS011;9714;51.208;4.242;2023-03-04T00:03:43;21.07;;;3.77;;
19163;SDS011;9714;51.208;4.242;2023-03-04T00:06:10;22.73;;;4.20;;
19163;SDS011;9714;51.208;4.242;2023-03-04T00:08:38;25.87;;;3.90;;
19163;SDS011;9714;51.208;4.242;2023-03-04T00:11:07;29.53;;;3.93;;
19163;SDS011;9714;51.208;4.242;2023-03-04T00:13:34;28.80;;;4.00;;
19163;SDS011;9714;51.208;4.242;2023-03-04T00:16:04;24.03;;;3.27;;
19163;SDS011;9714;51.208;4.242;2023-03-04T00:18:33;23.43;;;4.57;;
19163;SDS011;9714;51.208;4.242;2023-03-04T00:21:01;23.77;;;3.70;;
19163;SDS011;9714;51.208;4.242;2023-03-04T00:23:32;29.23;;;4.57;;
19163;SDS011;9714;51.208;4.242;2023-03-04T00:26:00;24.40;;;3.70;;
19163;SDS011;9714;51.208;4.242;2023-03-04T00:28:28;26.13;;;4.87;;
19163;SDS011;9714;51.208;4.242;2023-03-04T00:30:56;25.37;;;4.20;;
19163;SDS011;9714;51.208;4.242;2023-03-04T00:33:23;23.40;;;4.43;;
19163;SDS011;9714;51.208;4.242;2023-03-04T00:35:54;22.90;;;4.33;;
19163;SDS011;9714;51.208;4.242;2023-03-04T00:38:21;16.97;;;3.67;;
19163;SDS011;9714;51.208;4.242;2023-03-04T00:40:49;20.00;;;3.43;;
19163;SDS011;9714;51.208;4.242;2023-03-04T00:43:16;21.17;;;3.97;;
19163;SDS011;9714;51.208;4.242;2023-03-04T00:45:44;20.27;;;3.33;;
19163;SDS011;9714;51.208;4.242;2023-03-04T00:48:11;22.80;;;3.60;;
19163;SDS011;9714;51.208;4.242;2023-03-04T00:50:40;23.27;;;4.07;;
19163;SDS011;9714;51.208;4.242;2023-03-04T01:39:00;22.70;;;3.53;;
19163;SDS011;9714;51.208;4.242;2023-03-04T01:41:47;20.57;;;3.70;;
19163;SDS011;9714;51.208;4.242;2023-03-04T01:44:14;23.23;;;4.60;;
19163;SDS011;9714;51.208;4.242;2023-03-04T01:46:43;20.13;;;4.27;;
19163;SDS011;9714;51.208;4.242;2023-03-04T01:49:14;24.33;;;4.33;;
19163;SDS011;9714;51.208;4.242;2023-03-04T01:51:43;29.63;;;5.03;;
19163;SDS011;9714;51.208;4.242;2023-03-04T01:54:20;29.17;;;4.90;;
19163;SDS011;9714;51.208;4.242;2023-03-04T01:56:48;28.97;;;4.63;;
19163;SDS011;9714;51.208;4.242;2023-03-04T01:59:18;19.50;;;4.50;;
19163;SDS011;9714;51.208;4.242;2023-03-04T02:01:50;27.73;;;5.03;;
19163;SDS011;9714;51.208;4.242;2023-03-04T02:04:21;24.60;;;4.77;;
19163;SDS011;9714;51.208;4.242;2023-03-04T02:06:50;22.33;;;4.50;;
19163;SDS011;9714;51.208;4.242;2023-03-04T02:09:20;20.13;;;4.23;;
19163;SDS011;9714;51.208;4.242;2023-03-04T02:11:47;28.27;;;4.27;;
19163;SDS011;9714;51.208;4.242;2023-03-04T02:14:17;27.83;;;4.60;;
19163;SDS011;9714;51.208;4.242;2023-03-04T02:16:49;25.13;;;4.60;;
19163;SDS011;9714;51.208;4.242;2023-03-04T02:19:23;23.30;;;4.87;;
19163;SDS011;9714;51.208;4.242;2023-03-04T02:22:01;22.60;;;4.37;;
19163;SDS011;9714;51.208;4.242;2023-03-04T02:24:30;24.00;;;5.40;;
19163;SDS011;9714;51.208;4.242;2023-03-04T02:27:05;18.93;;;4.17;;
19163;SDS011;9714;51.208;4.242;2023-03-04T02:29:32;24.23;;;5.00;;
19163;SDS011;9714;51.208;4.242;2023-03-04T02:31:59;21.57;;;4.70;;
19163;SDS011;9714;51.208;4.242;2023-03-04T02:34:27;24.17;;;4.63;;
19163;SDS011;9714;51.208;4.242;2023-03-04T02:36:57;21.07;;;5.03;;
19163;SDS011;9714;51.208;4.242;2023-03-04T02:39:27;26.03;;;6.23;;
19163;SDS011;9714;51.208;4.242;2023-03-04T02:41:57;21.37;;;5.37;;
19163;SDS011;9714;51.208;4.242;2023-03-04T02:44:29;26.00;;;6.30;;
19163;SDS011;9714;51.208;4.242;2023-03-04T02:47:01;20.07;;;4.90;;
19163;SDS011;9714;51.208;4.242;2023-03-04T02:49:37;25.03;;;5.70;;
19163;SDS011;9714;51.208;4.242;2023-03-04T02:52:08;25.87;;;5.90;;
19163;SDS011;9714;51.208;4.242;2023-03-04T02:54:41;24.93;;;6.63;;
19163;SDS011;9714;51.208;4.242;2023-03-04T02:57:10;26.37;;;6.03;;
19163;SDS011;9714;51.208;4.242;2023-03-04T02:59:42;32.67;;;6.17;;
19163;SDS011;9714;51.208;4.242;2023-03-04T03:02:15;28.73;;;5.93;;
19163;SDS011;9714;51.208;4.242;2023-03-04T03:04:49;18.87;;;4.93;;
19163;SDS011;9714;51.208;4.242;2023-03-04T03:07:16;22.20;;;5.53;;
19163;SDS011;9714;51.208;4.242;2023-03-04T03:26:50;36.13;;;7.07;;
19163;SDS011;9714;51.208;4.242;2023-03-04T03:29:17;22.07;;;5.87;;
19163;SDS011;9714;51.208;4.242;2023-03-04T03:31:49;26.90;;;8.00;;
19163;SDS011;9714;51.208;4.242;2023-03-04T03:34:21;24.70;;;6.87;;
19163;SDS011;9714;51.208;4.242;2023-03-04T03:36:55;23.13;;;6.27;;
19163;SDS011;9714;51.208;4.242;2023-03-04T03:39:25;29.10;;;7.47;;
19163;SDS011;9714;51.208;4.242;2023-03-04T03:41:55;25.67;;;6.60;;
19163;SDS011;9714;51.208;4.242;2023-03-04T03:44:22;25.40;;;6.57;;
19163;SDS011;9714;51.208;4.242;2023-03-04T03:46:50;22.43;;;6.67;;
19163;SDS011;9714;51.208;4.242;2023-03-04T03:49:18;25.87;;;7.53;;
19163;SDS011;9714;51.208;4.242;2023-03-04T03:51:46;21.30;;;6.50;;
19163;SDS011;9714;51.208;4.242;2023-03-04T03:54:12;21.57;;;6.13;;
19163;SDS011;9714;51.208;4.242;2023-03-04T03:56:39;19.67;;;6.27;;
19163;SDS011;9714;51.208;4.242;2023-03-04T03:59:08;25.17;;;7.23;;
19163;SDS011;9714;51.208;4.242;2023-03-04T04:01:35;22.97;;;6.53;;
19163;SDS011;9714;51.208;4.242;2023-03-04T04:04:04;20.00;;;6.60;;
19163;SDS011;9714;51.208;4.242;2023-03-04T04:06:35;22.30;;;6.37;;
19163;SDS011;9714;51.208;4.242;2023-03-04T04:13:00;24.97;;;6.53;;
19163;SDS011;9714;51.208;4.242;2023-03-04T04:16:19;25.30;;;7.03;;
19163;SDS011;9714;51.208;4.242;2023-03-04T04:22:20;24.43;;;6.47;;
19163;SDS011;9714;51.208;4.242;2023-03-04T04:24:48;28.70;;;6.50;;
19163;SDS011;9714;51.208;4.242;2023-03-04T04:27:18;23.03;;;5.80;;
19163;SDS011;9714;51.208;4.242;2023-03-04T04:29:48;15.80;;;5.80;;
19163;SDS011;9714;51.208;4.242;2023-03-04T04:45:59;22.50;;;3.80;;
19163;SDS011;9714;51.208;4.242;2023-03-04T04:49:33;23.20;;;5.07;;
19163;SDS011;9714;51.208;4.242;2023-03-04T05:02:56;21.70;;;5.93;;
19163;SDS011;9714;51.208;4.242;2023-03-04T05:11:55;15.93;;;4.20;;
19163;SDS011;9714;51.208;4.242;2023-03-04T05:14:22;16.40;;;4.70;;
19163;SDS011;9714;51.208;4.242;2023-03-04T05:16:51;18.27;;;4.53;;
19163;SDS011;9714;51.208;4.242;2023-03-04T05:19:20;19.33;;;4.77;;
19163;SDS011;9714;51.208;4.242;2023-03-04T05:21:49;15.67;;;3.50;;
19163;SDS011;9714;51.208;4.242;2023-03-04T05:24:16;16.43;;;3.50;;
19163;SDS011;9714;51.208;4.242;2023-03-04T05:26:43;22.00;;;4.10;;
19163;SDS011;9714;51.208;4.242;2023-03-04T05:29:10;18.97;;;3.63;;
19163;SDS011;9714;51.208;4.242;2023-03-04T05:31:39;16.40;;;3.40;;
19163;SDS011;9714;51.208;4.242;2023-03-04T05:34:06;15.80;;;3.03;;
19163;SDS011;9714;51.208;4.242;2023-03-04T05:36:35;16.77;;;2.80;;
19163;SDS011;9714;51.208;4.242;2023-03-04T05:39:03;12.10;;;2.87;;
19163;SDS011;9714;51.208;4.242;2023-03-04T05:41:30;17.83;;;3.70;;
19163;SDS011;9714;51.208;4.242;2023-03-04T05:43:58;17.97;;;4.10;;
19163;SDS011;9714;51.208;4.242;2023-03-04T05:46:25;18.03;;;3.67;;
19163;SDS011;9714;51.208;4.242;2023-03-04T05:48:53;17.93;;;4.00;;
19163;SDS011;9714;51.208;4.242;2023-03-04T05:51:20;18.70;;;3.20;;
19163;SDS011;9714;51.208;4.242;2023-03-04T05:53:50;21.37;;;3.93;;
19163;SDS011;9714;51.208;4.242;2023-03-04T05:56:18;18.33;;;3.27;;
19163;SDS011;9714;51.208;4.242;2023-03-04T05:58:46;19.13;;;3.40;;
19163;SDS011;9714;51.208;4.242;2023-03-04T06:01:14;17.23;;;3.00;;
19163;SDS011;9714;51.208;4.242;2023-03-04T06:03:42;16.33;;;3.47;;
19163;SDS011;9714;51.208;4.242;2023-03-04T06:06:09;14.50;;;3.47;;
19163;SDS011;9714;51.208;4.242;2023-03-04T06:08:36;17.87;;;3.30;;
19163;SDS011;9714;51.208;4.242;2023-03-04T06:11:06;19.87;;;3.33;;
19163;SDS011;9714;51.208;4.242;2023-03-04T06:13:34;11.83;;;3.07;;
19163;SDS011;9714;51.208;4.242;2023-03-04T06:16:02;17.73;;;3.83;;
19163;SDS011;9714;51.208;4.242;2023-03-04T06:18:29;14.93;;;3.37;;
19163;SDS011;9714;51.208;4.242;2023-03-04T06:20:57;15.37;;;3.87;;
19163;SDS011;9714;51.208;4.242;2023-03-04T06:23:28;15.37;;;3.03;;
19163;SDS011;9714;51.208;4.242;2023-03-04T06:25:57;13.77;;;2.90;;
19163;SDS011;9714;51.208;4.242;2023-03-04T06:28:28;19.47;;;3.20;;
19163;SDS011;9714;51.208;4.242;2023-03-04T06:30:56;17.60;;;3.27;;
19163;SDS011;9714;51.208;4.242;2023-03-04T06:33:30;13.93;;;3.20;;
19163;SDS011;9714;51.208;4.242;2023-03-04T06:36:03;14.30;;;3.10;;
19163;SDS011;9714;51.208;4.242;2023-03-04T06:38:31;15.53;;;4.10;;
19163;SDS011;9714;51.208;4.242;2023-03-04T06:41:04;24.70;;;3.60;;
19163;SDS011;9714;51.208;4.242;2023-03-04T06:43:34;19.03;;;3.73;;
19163;SDS011;9714;51.208;4.242;2023-03-04T06:46:02;16.03;;;3.00;;
19163;SDS011;9714;51.208;4.242;2023-03-04T06:48:30;17.10;;;2.83;;
19163;SDS011;9714;51.208;4.242;2023-03-04T06:50:57;17.83;;;4.03;;
19163;SDS011;9714;51.208;4.242;2023-03-04T06:53:32;17.63;;;4.13;;
19163;SDS011;9714;51.208;4.242;2023-03-04T06:56:04;11.50;;;2.60;;
19163;SDS011;9714;51.208;4.242;2023-03-04T06:58:33;17.90;;;3.53;;
19163;SDS011;9714;51.208;4.242;2023-03-04T07:01:09;22.23;;;3.10;;
19163;SDS011;9714;51.208;4.242;2023-03-04T07:03:37;16.97;;;2.87;;
19163;SDS011;9714;51.208;4.242;2023-03-04T07:06:04;16.93;;;2.73;;
19163;SDS011;9714;51.208;4.242;2023-03-04T07:08:33;20.93;;;3.70;;
19163;SDS011;9714;51.208;4.242;2023-03-04T07:11:02;21.83;;;3.37;;
19163;SDS011;9714;51.208;4.242;2023-03-04T07:13:30;14.60;;;3.00;;
19163;SDS011;9714;51.208;4.242;2023-03-04T07:16:02;22.23;;;3.23;;
19163;SDS011;9714;51.208;4.242;2023-03-04T07:18:31;18.30;;;2.80;;
19163;SDS011;9714;51.208;4.242;2023-03-04T07:21:00;18.33;;;3.00;;
19163;SDS011;9714;51.208;4.242;2023-03-04T07:23:34;18.63;;;3.80;;
19163;SDS011;9714;51.208;4.242;2023-03-04T07:26:02;23.50;;;3.80;;
19163;SDS011;9714;51.208;4.242;2023-03-04T07:28:31;17.00;;;3.50;;
19163;SDS011;9714;51.208;4.242;2023-03-04T07:31:10;17.37;;;3.80;;
19163;SDS011;9714;51.208;4.242;2023-03-04T07:33:41;23.77;;;3.60;;
19163;SDS011;9714;51.208;4.242;2023-03-04T07:36:10;16.67;;;3.80;;
19163;SDS011;9714;51.208;4.242;2023-03-04T07:38:44;19.20;;;3.23;;
19163;SDS011;9714;51.208;4.242;2023-03-04T07:41:12;16.70;;;3.70;;
19163;SDS011;9714;51.208;4.242;2023-03-04T07:43:41;13.80;;;3.33;;
19163;SDS011;9714;51.208;4.242;2023-03-04T07:46:11;13.77;;;3.13;;
19163;SDS011;9714;51.208;4.242;2023-03-04T07:48:40;15.67;;;3.70;;
19163;SDS011;9714;51.208;4.242;2023-03-04T07:51:08;22.30;;;4.20;;
19163;SDS011;9714;51.208;4.242;2023-03-04T07:53:38;23.17;;;4.87;;
19163;SDS011;9714;51.208;4.242;2023-03-04T07:56:06;19.20;;;3.93;;
19163;SDS011;9714;51.208;4.242;2023-03-04T07:58:37;21.73;;;4.30;;
19163;SDS011;9714;51.208;4.242;2023-03-04T08:01:10;19.17;;;3.80;;
19163;SDS011;9714;51.208;4.242;2023-03-04T08:03:40;13.30;;;3.30;;
19163;SDS011;9714;51.208;4.242;2023-03-04T08:06:10;13.27;;;3.63;;
19163;SDS011;9714;51.208;4.242;2023-03-04T08:08:40;12.40;;;2.63;;
19163;SDS011;9714;51.208;4.242;2023-03-04T08:11:10;23.23;;;3.97;;
19163;SDS011;9714;51.208;4.242;2023-03-04T08:13:38;17.30;;;3.83;;
19163;SDS011;9714;51.208;4.242;2023-03-04T08:16:07;17.43;;;3.47;;
19163;SDS011;9714;51.208;4.242;2023-03-04T08:18:39;20.23;;;4.43;;
19163;SDS011;9714;51.208;4.242;2023-03-04T08:21:08;15.30;;;3.87;;
19163;SDS011;9714;51.208;4.242;2023-03-04T08:23:38;24.47;;;4.23;;
19163;SDS011;9714;51.208;4.242;2023-03-04T08:26:06;17.70;;;4.30;;
19163;SDS011;9714;51.208;4.242;2023-03-04T08:28:35;15.87;;;3.70;;
19163;SDS011;9714;51.208;4.242;2023-03-04T08:31:03;14.23;;;3.60;;
19163;SDS011;9714;51.208;4.242;2023-03-04T08:33:31;19.67;;;4.17;;
19163;SDS011;9714;51.208;4.242;2023-03-04T08:36:00;17.00;;;4.57;;
19163;SDS011;9714;51.208;4.242;2023-03-04T08:38:28;16.20;;;4.07;;
19163;SDS011;9714;51.208;4.242;2023-03-04T08:40:57;17.47;;;3.37;;
19163;SDS011;9714;51.208;4.242;2023-03-04T08:43:29;18.57;;;4.87;;
19163;SDS011;9714;51.208;4.242;2023-03-04T08:45:59;16.37;;;3.90;;
19163;SDS011;9714;51.208;4.242;2023-03-04T08:48:27;23.20;;;4.20;;
19163;SDS011;9714;51.208;4.242;2023-03-04T08:51:01;19.17;;;4.70;;
19163;SDS011;9714;51.208;4.242;2023-03-04T08:53:32;17.97;;;4.57;;
19163;SDS011;9714;51.208;4.242;2023-03-04T08:56:02;15.93;;;4.83;;
19163;SDS011;9714;51.208;4.242;2023-03-04T08:58:30;27.03;;;4.77;;
19163;SDS011;9714;51.208;4.242;2023-03-04T09:00:57;16.03;;;3.67;;
19163;SDS011;9714;51.208;4.242;2023-03-04T09:03:25;15.03;;;3.10;;
19163;SDS011;9714;51.208;4.242;2023-03-04T09:05:53;19.43;;;3.43;;
19163;SDS011;9714;51.208;4.242;2023-03-04T09:08:21;14.43;;;3.17;;
19163;SDS011;9714;51.208;4.242;2023-03-04T09:10:51;18.13;;;3.63;;
19163;SDS011;9714;51.208;4.242;2023-03-04T09:13:19;24.10;;;4.93;;
19163;SDS011;9714;51.208;4.242;2023-03-04T09:15:50;20.43;;;4.47;;
19163;SDS011;9714;51.208;4.242;2023-03-04T09:18:19;16.03;;;3.73;;
19163;SDS011;9714;51.208;4.242;2023-03-04T09:20:49;19.13;;;3.97;;
19163;SDS011;9714;51.208;4.242;2023-03-04T09:23:16;18.23;;;4.50;;
19163;SDS011;9714;51.208;4.242;2023-03-04T09:25:46;20.90;;;4.10;;
19163;SDS011;9714;51.208;4.242;2023-03-04T09:28:16;21.17;;;4.13;;
19163;SDS011;9714;51.208;4.242;2023-03-04T09:30:45;19.47;;;4.63;;
19163;SDS011;9714;51.208;4.242;2023-03-04T09:33:14;17.77;;;4.30;;
19163;SDS011;9714;51.208;4.242;2023-03-04T09:35:42;13.67;;;3.77;;
19163;SDS011;9714;51.208;4.242;2023-03-04T09:38:14;21.07;;;4.40;;
19163;SDS011;9714;51.208;4.242;2023-03-04T09:40:42;16.20;;;4.53;;
19163;SDS011;9714;51.208;4.242;2023-03-04T09:43:16;16.57;;;4.10;;
19163;SDS011;9714;51.208;4.242;2023-03-04T09:45:48;16.93;;;3.60;;
19163;SDS011;9714;51.208;4.242;2023-03-04T09:48:22;21.13;;;4.43;;
19163;SDS011;9714;51.208;4.242;2023-03-04T09:50:57;14.37;;;3.87;;
19163;SDS011;9714;51.208;4.242;2023-03-04T09:53:34;16.83;;;3.50;;
19163;SDS011;9714;51.208;4.242;2023-03-04T09:56:09;19.67;;;3.87;;
19163;SDS011;9714;51.208;4.242;2023-03-04T09:58:42;19.10;;;4.13;;
19163;SDS011;9714;51.208;4.242;2023-03-04T10:03:53;11.23;;;3.03;;
19163;SDS011;9714;51.208;4.242;2023-03-04T10:06:24;16.37;;;4.07;;
19163;SDS011;9714;51.208;4.242;2023-03-04T10:08:54;16.53;;;3.10;;
19163;SDS011;9714;51.208;4.242;2023-03-04T10:11:31;17.80;;;3.17;;
19163;SDS011;9714;51.208;4.242;2023-03-04T10:14:18;14.60;;;3.10;;
19163;SDS011;9714;51.208;4.242;2023-03-04T10:16:57;15.63;;;2.40;;
19163;SDS011;9714;51.208;4.242;2023-03-04T10:19:35;16.67;;;3.13;;
19163;SDS011;9714;51.208;4.242;2023-03-04T10:22:16;16.50;;;2.97;;
19163;SDS011;9714;51.208;4.242;2023-03-04T10:24:49;15.10;;;3.23;;
19163;SDS011;9714;51.208;4.242;2023-03-04T10:27:19;16.20;;;3.53;;
19163;SDS011;9714;51.208;4.242;2023-03-04T10:29:49;13.23;;;4.00;;
19163;SDS011;9714;51.208;4.242;2023-03-04T10:32:19;16.70;;;3.10;;
19163;SDS011;9714;51.208;4.242;2023-03-04T10:34:47;15.03;;;2.80;;
19163;SDS011;9714;51.208;4.242;2023-03-04T10:37:19;16.70;;;2.60;;
19163;SDS011;9714;51.208;4.242;2023-03-04T10:39:47;13.97;;;2.53;;
19163;SDS011;9714;51.208;4.242;2023-03-04T10:42:27;12.37;;;2.00;;
19163;SDS011;9714;51.208;4.242;2023-03-04T10:45:05;11.03;;;2.20;;
19163;SDS011;9714;51.208;4.242;2023-03-04T10:47:50;14.67;;;2.67;;
19163;SDS011;9714;51.208;4.242;2023-03-04T10:50:25;11.17;;;1.90;;
19163;SDS011;9714;51.208;4.242;2023-03-04T10:52:54;12.00;;;2.10;;
19163;SDS011;9714;51.208;4.242;2023-03-04T10:55:29;9.53;;;1.40;;
19163;SDS011;9714;51.208;4.242;2023-03-04T10:58:11;10.27;;;1.57;;
19163;SDS011;9714;51.208;4.242;2023-03-04T11:00:44;17.00;;;1.90;;
19163;SDS011;9714;51.208;4.242;2023-03-04T11:03:28;7.87;;;1.67;;
19163;SDS011;9714;51.208;4.242;2023-03-04T11:06:08;7.07;;;1.60;;
19163;SDS011;9714;51.208;4.242;2023-03-04T11:08:38;12.33;;;1.83;;
19163;SDS011;9714;51.208;4.242;2023-03-04T11:13:59;13.77;;;1.70;;
19163;SDS011;9714;51.208;4.242;2023-03-04T11:16:34;8.77;;;1.40;;
19163;SDS011;9714;51.208;4.242;2023-03-04T11:19:05;7.50;;;1.43;;
19163;SDS011;9714;51.208;4.242;2023-03-04T11:21:39;8.00;;;1.50;;
19163;SDS011;9714;51.208;4.242;2023-03-04T11:24:11;6.63;;;1.20;;
19163;SDS011;9714;51.208;4.242;2023-03-04T11:26:40;10.10;;;1.53;;
19163;SDS011;9714;51.208;4.242;2023-03-04T11:29:13;6.43;;;1.13;;
19163;SDS011;9714;51.208;4.242;2023-03-04T11:31:59;8.33;;;1.43;;
19163;SDS011;9714;51.208;4.242;2023-03-04T11:35:15;12.90;;;2.17;;
19163;SDS011;9714;51.208;4.242;2023-03-04T11:37:52;5.00;;;1.17;;
19163;SDS011;9714;51.208;4.242;2023-03-04T11:40:32;12.13;;;1.70;;
19163;SDS011;9714;51.208;4.242;2023-03-04T11:43:10;6.70;;;1.30;;
19163;SDS011;9714;51.208;4.242;2023-03-04T11:48:51;6.90;;;1.23;;
19163;SDS011;9714;51.208;4.242;2023-03-04T11:51:30;4.47;;;1.07;;
19163;SDS011;9714;51.208;4.242;2023-03-04T11:54:08;8.03;;;1.57;;
19163;SDS011;9714;51.208;4.242;2023-03-04T11:56:43;9.60;;;1.37;;
19163;SDS011;9714;51.208;4.242;2023-03-04T11:59:16;6.83;;;1.53;;
19163;SDS011;9714;51.208;4.242;2023-03-04T12:01:58;3.43;;;0.97;;
19163;SDS011;9714;51.208;4.242;2023-03-04T12:07:50;7.10;;;0.80;;
19163;SDS011;9714;51.208;4.242;2023-03-04T12:10:45;3.07;;;1.00;;
19163;SDS011;9714;51.208;4.242;2023-03-04T12:13:22;4.27;;;1.20;;
19163;SDS011;9714;51.208;4.242;2023-03-04T12:16:16;3.43;;;1.20;;
19163;SDS011;9714;51.208;4.242;2023-03-04T12:18:53;6.53;;;1.10;;
19163;SDS011;9714;51.208;4.242;2023-03-04T12:21:49;7.60;;;1.50;;
19163;SDS011;9714;51.208;4.242;2023-03-04T12:24:29;6.47;;;1.20;;
19163;SDS011;9714;51.208;4.242;2023-03-04T12:27:07;8.83;;;1.77;;
19163;SDS011;9714;51.208;4.242;2023-03-04T12:29:44;5.33;;;1.80;;
19163;SDS011;9714;51.208;4.242;2023-03-04T12:32:20;5.33;;;0.90;;
19163;SDS011;9714;51.208;4.242;2023-03-04T12:35:01;3.47;;;1.07;;
19163;SDS011;9714;51.208;4.242;2023-03-04T12:37:43;4.77;;;1.30;;
19163;SDS011;9714;51.208;4.242;2023-03-04T12:40:29;4.07;;;1.03;;
19163;SDS011;9714;51.208;4.242;2023-03-04T12:43:12;7.33;;;1.20;;
19163;SDS011;9714;51.208;4.242;2023-03-04T12:45:50;4.50;;;1.03;;
19163;SDS011;9714;51.208;4.242;2023-03-04T12:48:26;3.77;;;0.80;;
19163;SDS011;9714;51.208;4.242;2023-03-04T12:51:02;6.23;;;1.10;;
19163;SDS011;9714;51.208;4.242;2023-03-04T12:53:45;5.87;;;1.00;;
19163;SDS011;9714;51.208;4.242;2023-03-04T12:56:22;5.70;;;1.10;;
19163;SDS011;9714;51.208;4.242;2023-03-04T12:58:53;4.50;;;1.07;;
19163;SDS011;9714;51.208;4.242;2023-03-04T13:01:23;7.27;;;1.63;;
19163;SDS011;9714;51.208;4.242;2023-03-04T13:03:55;3.23;;;1.27;;
19163;SDS011;9714;51.208;4.242;2023-03-04T13:06:29;4.03;;;1.10;;
19163;SDS011;9714;51.208;4.242;2023-03-04T13:09:09;11.13;;;1.40;;
19163;SDS011;9714;51.208;4.242;2023-03-04T13:11:43;3.50;;;1.07;;
19163;SDS011;9714;51.208;4.242;2023-03-04T13:14:28;6.40;;;1.20;;
19163;SDS011;9714;51.208;4.242;2023-03-04T13:16:58;5.07;;;1.10;;
19163;SDS011;9714;51.208;4.242;2023-03-04T13:19:43;3.63;;;1.20;;
19163;SDS011;9714;51.208;4.242;2023-03-04T13:22:25;6.97;;;1.50;;
19163;SDS011;9714;51.208;4.242;2023-03-04T13:24:56;4.93;;;1.10;;
19163;SDS011;9714;51.208;4.242;2023-03-04T13:39:24;8.00;;;1.37;;
19163;SDS011;9714;51.208;4.242;2023-03-04T13:41:56;5.53;;;1.70;;
19163;SDS011;9714;51.208;4.242;2023-03-04T13:44:54;11.27;;;1.60;;
19163;SDS011;9714;51.208;4.242;2023-03-04T13:52:59;10.33;;;1.50;;
19163;SDS011;9714;51.208;4.242;2023-03-04T13:58:33;7.57;;;1.30;;
19163;SDS011;9714;51.208;4.242;2023-03-04T14:01:01;6.37;;;1.23;;
19163;SDS011;9714;51.208;4.242;2023-03-04T14:03:33;8.20;;;1.13;;
19163;SDS011;9714;51.208;4.242;2023-03-04T14:06:07;7.70;;;1.07;;
19163;SDS011;9714;51.208;4.242;2023-03-04T14:08:36;8.33;;;1.33;;
19163;SDS011;9714;51.208;4.242;2023-03-04T14:11:03;8.13;;;1.40;;
19163;SDS011;9714;51.208;4.242;2023-03-04T14:13:38;3.93;;;1.00;;
19163;SDS011;9714;51.208;4.242;2023-03-04T14:16:06;5.57;;;1.27;;
19163;SDS011;9714;51.208;4.242;2023-03-04T14:18:35;8.63;;;1.90;;
19163;SDS011;9714;51.208;4.242;2023-03-04T14:21:04;5.63;;;0.97;;
19163;SDS011;9714;51.208;4.242;2023-03-04T14:23:34;7.97;;;1.50;;
19163;SDS011;9714;51.208;4.242;2023-03-04T14:26:06;14.43;;;2.50;;
19163;SDS011;9714;51.208;4.242;2023-03-04T14:28:45;5.87;;;0.90;;
19163;SDS011;9714;51.208;4.242;2023-03-04T14:31:15;6.30;;;1.40;;
19163;SDS011;9714;51.208;4.242;2023-03-04T14:33:47;8.17;;;1.50;;
19163;SDS011;9714;51.208;4.242;2023-03-04T14:36:17;7.87;;;1.50;;
19163;SDS011;9714;51.208;4.242;2023-03-04T14:38:50;7.67;;;1.37;;
19163;SDS011;9714;51.208;4.242;2023-03-04T14:41:24;7.13;;;1.33;;
19163;SDS011;9714;51.208;4.242;2023-03-04T14:43:57;9.93;;;2.13;;
19163;SDS011;9714;51.208;4.242;2023-03-04T14:46:32;20.43;;;6.67;;
19163;SDS011;9714;51.208;4.242;2023-03-04T14:49:04;15.03;;;5.00;;
19163;SDS011;9714;51.208;4.242;2023-03-04T14:51:44;8.10;;;1.67;;
19163;SDS011;9714;51.208;4.242;2023-03-04T14:54:27;8.93;;;1.50;;
19163;SDS011;9714;51.208;4.242;2023-03-04T14:57:01;9.37;;;1.50;;
19163;SDS011;9714;51.208;4.242;2023-03-04T14:59:51;9.70;;;1.20;;
19163;SDS011;9714;51.208;4.242;2023-03-04T15:02:22;7.23;;;1.60;;
19163;SDS011;9714;51.208;4.242;2023-03-04T15:04:56;9.77;;;1.50;;
19163;SDS011;9714;51.208;4.242;2023-03-04T15:07:30;8.57;;;1.10;;
19163;SDS011;9714;51.208;4.242;2023-03-04T15:10:06;5.53;;;0.87;;
19163;SDS011;9714;51.208;4.242;2023-03-04T15:12:37;6.63;;;0.93;;
19163;SDS011;9714;51.208;4.242;2023-03-04T15:18:12;12.00;;;1.53;;
19163;SDS011;9714;51.208;4.242;2023-03-04T15:20:50;5.57;;;0.73;;
19163;SDS011;9714;51.208;4.242;2023-03-04T15:23:19;5.57;;;1.23;;
19163;SDS011;9714;51.208;4.242;2023-03-04T15:25:49;14.40;;;1.50;;
19163;SDS011;9714;51.208;4.242;2023-03-04T15:28:19;11.60;;;1.83;;
19163;SDS011;9714;51.208;4.242;2023-03-04T15:30:51;10.50;;;1.33;;
19163;SDS011;9714;51.208;4.242;2023-03-04T15:33:19;5.30;;;0.93;;
19163;SDS011;9714;51.208;4.242;2023-03-04T15:35:50;4.77;;;0.97;;
19163;SDS011;9714;51.208;4.242;2023-03-04T15:38:20;7.40;;;1.23;;
19163;SDS011;9714;51.208;4.242;2023-03-04T15:40:48;6.90;;;1.20;;
19163;SDS011;9714;51.208;4.242;2023-03-04T15:43:17;12.30;;;1.50;;
19163;SDS011;9714;51.208;4.242;2023-03-04T15:45:47;8.57;;;1.50;;
19163;SDS011;9714;51.208;4.242;2023-03-04T15:48:17;9.17;;;1.67;;
19163;SDS011;9714;51.208;4.242;2023-03-04T15:50:47;6.83;;;1.23;;
19163;SDS011;9714;51.208;4.242;2023-03-04T15:53:18;5.70;;;0.90;;
19163;SDS011;9714;51.208;4.242;2023-03-04T15:55:52;6.27;;;1.40;;
19163;SDS011;9714;51.208;4.242;2023-03-04T15:58:25;7.80;;;1.20;;
19163;SDS011;9714;51.208;4.242;2023-03-04T16:00:59;5.17;;;1.07;;
19163;SDS011;9714;51.208;4.242;2023-03-04T16:03:28;3.53;;;1.07;;
19163;SDS011;9714;51.208;4.242;2023-03-04T16:06:02;8.93;;;1.97;;
19163;SDS011;9714;51.208;4.242;2023-03-04T16:08:35;6.10;;;1.73;;
19163;SDS011;9714;51.208;4.242;2023-03-04T16:11:03;4.33;;;1.00;;
19163;SDS011;9714;51.208;4.242;2023-03-04T16:13:32;8.90;;;2.10;;
19163;SDS011;9714;51.208;4.242;2023-03-04T16:16:00;5.20;;;1.23;;
19163;SDS011;9714;51.208;4.242;2023-03-04T16:18:28;4.17;;;1.10;;
19163;SDS011;9714;51.208;4.242;2023-03-04T16:20:57;2.93;;;0.93;;
19163;SDS011;9714;51.208;4.242;2023-03-04T16:23:26;5.63;;;0.80;;
19163;SDS011;9714;51.208;4.242;2023-03-04T16:25:53;8.50;;;1.83;;
19163;SDS011;9714;51.208;4.242;2023-03-04T16:28:22;6.90;;;1.80;;
19163;SDS011;9714;51.208;4.242;2023-03-04T16:30:51;14.47;;;3.17;;
19163;SDS011;9714;51.208;4.242;2023-03-04T16:33:24;7.93;;;2.20;;
19163;SDS011;9714;51.208;4.242;2023-03-04T16:35:53;9.27;;;2.10;;
19163;SDS011;9714;51.208;4.242;2023-03-04T16:38:21;15.40;;;4.10;;
19163;SDS011;9714;51.208;4.242;2023-03-04T16:40:58;27.23;;;8.20;;
19163;SDS011;9714;51.208;4.242;2023-03-04T16:43:26;24.60;;;7.13;;
19163;SDS011;9714;51.208;4.242;2023-03-04T16:45:54;12.30;;;3.17;;
19163;SDS011;9714;51.208;4.242;2023-03-04T16:48:21;9.37;;;1.63;;
19163;SDS011;9714;51.208;4.242;2023-03-04T16:50:49;7.13;;;1.20;;
19163;SDS011;9714;51.208;4.242;2023-03-04T16:53:22;7.17;;;1.07;;
19163;SDS011;9714;51.208;4.242;2023-03-04T16:55:53;8.33;;;1.50;;
19163;SDS011;9714;51.208;4.242;2023-03-04T16:58:23;6.73;;;1.60;;
19163;SDS011;9714;51.208;4.242;2023-03-04T17:00:53;14.87;;;1.63;;
19163;SDS011;9714;51.208;4.242;2023-03-04T17:03:20;11.97;;;1.90;;
19163;SDS011;9714;51.208;4.242;2023-03-04T17:05:47;8.83;;;1.20;;
19163;SDS011;9714;51.208;4.242;2023-03-04T17:08:15;13.87;;;2.07;;
19163;SDS011;9714;51.208;4.242;2023-03-04T17:10:52;22.77;;;2.43;;
19163;SDS011;9714;51.208;4.242;2023-03-04T17:13:19;14.50;;;2.10;;
19163;SDS011;9714;51.208;4.242;2023-03-04T17:15:48;15.50;;;2.20;;
19163;SDS011;9714;51.208;4.242;2023-03-04T17:18:15;13.37;;;2.57;;
19163;SDS011;9714;51.208;4.242;2023-03-04T17:20:42;10.30;;;1.97;;
19163;SDS011;9714;51.208;4.242;2023-03-04T17:23:09;13.17;;;1.80;;
19163;SDS011;9714;51.208;4.242;2023-03-04T17:25:36;15.20;;;2.53;;
19163;SDS011;9714;51.208;4.242;2023-03-04T17:28:07;13.53;;;2.10;;
19163;SDS011;9714;51.208;4.242;2023-03-04T17:30:34;11.23;;;1.97;;
19163;SDS011;9714;51.208;4.242;2023-03-04T17:33:01;12.07;;;1.80;;
19163;SDS011;9714;51.208;4.242;2023-03-04T17:35:30;16.47;;;2.87;;
19163;SDS011;9714;51.208;4.242;2023-03-04T17:37:57;8.53;;;2.40;;